• Join FlightAware (Why Join?)
  • Login
  • US Flag 
01:42PM EDT


 

Airport Tracker/Info


-or-


 

Live Flight TrackerFlight Track Log ✈ EJA922 ✈ 26-Nov-2013 ✈ KYIP - KHPN

Flight Track Log - Related Links

Times and Time Zones

All times are in EST time to prevent confusion due to time zone crossing. See the EJA922 flight status page for this flight to view local times or setup timezone preferences in your user account.

Time Position Orientation Groundspeed Altitude Reporting Facility
EST Latitude Longitude Course Direction KTS MPH feet Rate Location/Type
02:20PM 42.2231 -83.5500 76° East 185 213 1,600  Level Cleveland Center
02:21PM 42.2111 -83.5681 228° Southwest 187 215 2,300 1,980 Climbing Cleveland Center
02:22PM 42.2097 -83.6383 268° West 207 238 4,500 1,920 Climbing Cleveland Center
02:22PM 42.2100 -83.6356 82° East 202 232 4,500 2,640 Level Cleveland Center
02:23PM 42.2547 -83.6983 314° West 251 289 7,500 2,460 Climbing Cleveland Center
02:24PM 42.3261 -83.6408 31° Northeast 301 346 9,700 2,220 Climbing Cleveland Center
02:25PM 42.3972 -83.5250 50° Northeast 382 440 12,200 1,560 Climbing Cleveland Center
02:26PM 42.3435 -82.5776 76° East  Level FlightAware Approximate
02:26PM 42.3975 -83.3636 90° East 430 495 13,000  Level Cleveland Center
02:27PM 42.3933 -83.2117 92° East 443 510 13,000 720 Level Cleveland Center
02:28PM 42.3872 -83.0144 92° East 438 504 14,500 2,040 Climbing Cleveland Center
02:29PM 42.3814 -82.8467 93° East 443 510 17,300 2,700 Climbing Cleveland Center
02:30PM 42.3756 -82.6789 93° East 446 513 20,200 2,460 Climbing Cleveland Center
02:31PM 42.3692 -82.5078 93° East 452 520 22,400 1,980 Climbing Cleveland Center
02:32PM 42.3622 -82.3278 93° East 476 548 24,400 2,040 Climbing Cleveland Center
02:33PM 42.3533 -82.1111 93° East 506 582 26,700 2,040 Climbing Cleveland Center
02:34PM 42.3439 -81.9125 94° East 520 598 28,700 1,920 Climbing Cleveland Center
02:35PM 42.3356 -81.7081 93° East 534 615 30,800 1,680 Climbing Cleveland Center
02:36PM 42.3258 -81.5006 94° East 543 625 32,300 1,620 Climbing Cleveland Center
02:37PM 42.3153 -81.2856 94° East 560 644 34,200 1,260 Climbing Cleveland Center
02:38PM 42.3044 -81.0681 94° East 570 656 35,000 1,140 Climbing Cleveland Center
02:39PM 42.2903 -80.8039 94° East 593 682 36,600 960 Climbing Cleveland Center
02:40PM 42.2778 -80.5789 94° East 594 684 37,000 180 Climbing Cleveland Center
02:41PM 42.2658 -80.3539 94° East 595 685 37,000  Level Cleveland Center
02:42PM 42.2572 -80.1231 93° East 608 700 37,000  Level Cleveland Center
02:43PM 42.2744 -79.8836 84° East 627 722 37,000  Level Cleveland Center
02:44PM 42.2942 -79.6506 83° East 627 722 37,000  Level Cleveland Center
02:46PM 42.3136 -79.4161 84° East 630 725 37,000  Level Cleveland Center
02:47PM 42.3369 -79.1358 83° East 629 724 37,000  Level Cleveland Center
02:48PM 42.3567 -78.8994 83° East 631 726 37,000  Level Cleveland Center
02:49PM 42.3758 -78.6500 84° East 631 726 37,000  Level Cleveland Center
02:50PM 42.3944 -78.4125 84° East 636 732 37,000 -180 Level Cleveland Center
02:51PM 42.4131 -78.1722 84° East 645 742 36,700 -1,080 Descending Cleveland Center
02:52PM 42.4294 -77.9383 84° East 636 732 34,800 -1,620 Descending Cleveland Center
02:53PM 42.4469 -77.6897 84° East 636 732 33,400 -900 Descending Cleveland Center
02:54PM 42.4661 -77.4292 84° East 633 728 33,000 -240 Descending Cleveland Center
02:55PM 42.4800 -77.1936 85° East 636 732 33,000  Level Cleveland Center
02:56PM 42.4958 -76.9569 85° East 635 731 33,000  Level Cleveland Center
02:57PM 42.5094 -76.7194 85° East 637 733 33,000  Level Cleveland Center
02:58PM 42.5247 -76.4797 85° East 641 738 33,000 -900 Level Cleveland Center
02:59PM 42.5014 -76.2228 97° East 621 715 31,200 -1,860 Descending Cleveland Center
03:00PM 42.4489 -76.0164 109° East 590 679 29,200 -2,160 Descending Cleveland Center
03:01PM 42.3878 -75.7750 109° East 572 658 26,800 -2,040 Descending Cleveland Center
03:02PM 42.3383 -75.5778 109° East 562 647 25,000 -2,340 Descending Cleveland Center
03:03PM 42.2919 -75.3961 109° East 521 600 22,000 -2,820 Descending Cleveland Center
03:04PM 42.2469 -75.2236 109° East 494 568 19,200 -1,980 Descending Cleveland Center
03:05PM 42.2047 -75.0597 109° East 471 542 18,000 -540 Descending Cleveland Center
03:06PM 42.1294 -74.8439 115° Southeast 461 531 18,000 -360 Level Boston Center
03:07PM 42.0664 -74.6956 120° Southeast 460 529 17,200 -1,200 Descending Boston Center
03:08PM 42.0008 -74.5342 119° Southeast 467 537 15,700 -1,920 Descending Boston Center
03:10PM 41.9428 -74.4014 120° Southeast 413 475 13,300 -2,220 Descending Boston Center
03:11PM 41.8883 -74.2783 121° Southeast 389 448 11,100 -1,560 Descending Boston Center
03:12PM 41.8117 -74.2089 146° Southeast 309 356 10,200 -1,140 Descending Boston Center
03:13PM 41.7411 -74.1653 155° Southeast 283 326 8,800 -1,320 Descending Boston Center
03:14PM 41.6744 -74.1222 154° Southeast 268 308 7,600 -900 Descending Boston Center
03:15PM 41.6044 -74.0783 155° Southeast 259 298 7,000 -480 Descending Boston Center
03:16PM 41.5500 -74.0333 148° Southeast 259 298 6,700 -540 Descending New York TRACON
03:17PM 41.4833 -74.0000 159° South 250 288 6,100 -300 Descending New York TRACON
03:18PM 41.4167 -73.9667 159° South 238 274 6,100 -240 Level New York TRACON
03:19PM 41.3667 -73.9333 153° Southeast 180 207 5,700 -660 Descending New York TRACON
03:20PM 41.3333 -73.9000 143° Southeast 167 192 4,800 -840 Descending New York TRACON
03:21PM 41.2833 -73.8833 166° South 166 191 4,100 -360 Descending New York TRACON
03:22PM 41.2500 -73.8500 143° Southeast 150 173 4,100 -240 Level New York TRACON
03:23PM 41.2167 -73.8167 143° Southeast 142 163 3,700 -600 Descending New York TRACON
03:24PM 41.1833 -73.8000 159° South 155 178 2,900 -840 Descending New York TRACON
03:25PM 41.1333 -73.7667 153° Southeast 150 173 2,100 -780 Descending New York TRACON
03:26PM 41.1000 -73.7333 143° Southeast 132 152 1,300 -780 Descending New York TRACON
03:28PM 41.0667 -73.7000 246° West  Level FlightAware Approximate
03:35PM 41.0669 -73.7076 246° West  Level Estimated